Time,TemperatureF,DewpointF,PressureIn,WindDirection,WindDirectionDegrees,WindSpeedMPH,WindSpeedGustMPH,Humidity,HourlyPrecipIn,Conditions,Clouds,dailyrainin,SoftwareType,DateUTC
2013-10-27 00:23:00,28.0,25.0,29.49,North,0,0.0,0.0,88,1.26,,,-99.99,,2013-10-27 05:23:00,
2013-10-27 00:52:00,28.0,25.0,29.48,North,0,0.0,0.0,90,1.26,,,-99.99,,2013-10-27 05:52:00,
2013-10-27 01:21:00,28.0,25.0,29.47,North,0,0.0,0.0,90,1.26,,,-99.99,,2013-10-27 06:21:00,
2013-10-27 01:53:00,28.0,26.0,29.46,North,0,0.0,0.0,91,1.26,,,-99.99,,2013-10-27 06:53:00,
2013-10-27 02:22:00,29.0,27.0,29.45,North,0,0.0,0.0,91,1.26,,,-99.99,,2013-10-27 07:22:00,
2013-10-27 02:52:00,29.0,27.0,29.45,North,0,0.0,0.0,91,1.26,,,-99.99,,2013-10-27 07:52:00,
2013-10-27 03:22:00,28.0,26.0,29.44,North,0,0.0,0.0,91,1.26,,,-99.99,,2013-10-27 08:22:00,
2013-10-27 03:52:00,29.0,27.0,29.42,North,0,0.0,0.0,91,1.26,,,-99.99,,2013-10-27 08:52:00,
2013-10-27 04:21:00,29.0,27.0,29.41,North,0,0.0,0.0,91,1.26,,,-99.99,,2013-10-27 09:21:00,
2013-10-27 04:54:00,28.0,26.0,29.40,South,173,4.0,5.0,91,1.26,,,-99.99,,2013-10-27 09:54:00,
2013-10-27 05:23:00,28.0,26.0,29.39,SE,135,1.0,3.0,92,1.26,,,-99.99,,2013-10-27 10:23:00,
2013-10-27 05:53:00,28.0,26.0,29.39,North,0,0.0,0.0,92,1.26,,,-99.99,,2013-10-27 10:53:00,
2013-10-27 06:22:00,29.0,27.0,29.38,South,181,4.0,6.0,92,1.26,,,-99.99,,2013-10-27 11:22:00,
2013-10-27 06:52:00,29.0,27.0,29.36,South,169,4.0,6.0,92,1.26,,,-99.99,,2013-10-27 11:52:00,
2013-10-27 07:22:00,29.0,27.0,29.35,SSE,162,6.0,9.0,93,1.26,,,-99.99,,2013-10-27 12:22:00,
2013-10-27 07:52:00,30.0,28.0,29.34,South,188,5.0,7.0,92,1.26,,,-99.99,,2013-10-27 12:52:00,
2013-10-27 08:21:00,30.0,28.0,29.32,SSE,152,6.0,8.0,92,1.26,,,-99.99,,2013-10-27 13:21:00,
2013-10-27 08:52:00,31.0,29.0,29.31,South,186,7.0,9.0,93,1.26,,,-99.99,,2013-10-27 13:52:00,
2013-10-27 09:22:00,33.0,31.0,29.31,SSE,149,6.0,9.0,92,1.26,,,-99.99,,2013-10-27 14:22:00,
2013-10-27 09:52:00,36.0,34.0,29.31,SSW,211,4.0,7.0,92,1.26,,,-99.99,,2013-10-27 14:52:00,
2013-10-27 11:24:00,50.0,40.0,29.28,SSW,211,7.0,13.0,68,1.26,,,-99.99,,2013-10-27 16:24:00,
2013-10-27 14:22:00,69.0,46.0,29.20,South,181,6.0,11.0,43,1.26,,,-99.99,,2013-10-27 19:22:00,
2013-10-27 14:52:00,70.0,45.0,29.20,WSW,242,7.0,11.0,41,1.26,,,-99.99,,2013-10-27 19:52:00,
2013-10-27 15:22:00,71.0,45.0,29.19,SW,219,8.0,13.0,39,1.26,,,-99.99,,2013-10-27 20:22:00,
2013-10-27 15:52:00,72.0,45.0,29.18,South,187,7.0,14.0,38,1.26,,,-99.99,,2013-10-27 20:52:00,
2013-10-27 16:21:00,73.0,46.0,29.19,WSW,255,14.0,18.0,38,1.26,,,-99.99,,2013-10-27 21:21:00,
2013-10-27 16:54:00,73.0,45.0,29.19,SW,232,7.0,11.0,37,1.26,,,-99.99,,2013-10-27 21:54:00,
2013-10-27 17:24:00,73.0,45.0,29.19,WSW,245,5.0,12.0,37,1.26,,,-99.99,,2013-10-27 22:24:00,
2013-10-27 17:54:00,71.0,45.0,29.19,SSW,197,3.0,7.0,40,1.26,,,-99.99,,2013-10-27 22:54:00,
2013-10-27 18:22:00,67.0,44.0,29.18,South,172,5.0,7.0,44,1.26,,,-99.99,,2013-10-27 23:22:00,
2013-10-27 19:11:00,62.0,44.0,29.19,SSE,150,7.0,8.0,51,1.26,,,-99.99,,2013-10-28 00:11:00,
2013-10-27 19:22:00,61.0,44.0,29.20,South,180,7.0,10.0,54,1.26,,,-99.99,,2013-10-28 00:22:00,
2013-10-27 19:52:00,59.0,43.0,29.21,SSE,166,6.0,9.0,55,1.26,,,-99.99,,2013-10-28 00:52:00,
2013-10-27 20:21:00,56.0,42.0,29.22,SSE,166,5.0,8.0,59,1.26,,,-99.99,,2013-10-28 01:21:00,
2013-10-27 20:52:00,56.0,42.0,29.22,SSE,166,6.0,10.0,60,1.26,,,-99.99,,2013-10-28 01:52:00,
2013-10-27 21:22:00,52.0,40.0,29.23,North,0,0.0,0.0,63,1.26,,,-99.99,,2013-10-28 02:22:00,
2013-10-27 21:53:00,49.0,39.0,29.24,North,0,0.0,0.0,68,1.26,,,-99.99,,2013-10-28 02:53:00,
2013-10-27 22:22:00,50.0,40.0,29.24,ESE,122,3.0,6.0,69,1.26,,,-99.99,,2013-10-28 03:22:00,
2013-10-27 22:44:00,49.0,40.0,29.25,North,0,0.0,0.0,70,1.26,,,-99.99,,2013-10-28 03:44:00,
2013-10-27 22:54:00,47.0,38.0,29.26,North,10,2.0,5.0,72,1.26,,,-99.99,,2013-10-28 03:54:00,
2013-10-27 23:13:00,46.0,38.0,29.27,North,0,0.0,0.0,74,1.26,,,-99.99,,2013-10-28 04:13:00,
2013-10-27 23:23:00,45.0,38.0,29.27,North,0,0.0,0.0,76,1.26,,,-99.99,,2013-10-28 04:23:00,